createdAt,value
2018-05-11T00:00:39.354Z,36.00
2018-05-11T00:03:06.856Z,35.90
2018-05-11T00:05:34.329Z,36.00
2018-05-11T00:08:01.925Z,36.00
2018-05-11T00:10:29.424Z,35.90
2018-05-11T00:12:56.903Z,35.90
2018-05-11T00:15:24.421Z,36.60
2018-05-11T00:17:52.673Z,35.40
2018-05-11T00:20:20.207Z,35.50
2018-05-11T00:22:47.725Z,35.30
2018-05-11T00:25:16.097Z,35.10
2018-05-11T00:27:44.338Z,35.60
2018-05-11T00:30:11.851Z,35.70
2018-05-11T00:32:39.339Z,35.60
2018-05-11T00:35:06.847Z,35.50
2018-05-11T00:37:35.439Z,35.40
2018-05-11T00:40:02.955Z,35.50
2018-05-11T00:42:30.565Z,35.10
2018-05-11T00:44:58.727Z,35.50
2018-05-11T00:47:26.985Z,35.50
2018-05-11T00:49:54.798Z,35.60
2018-05-11T00:52:22.299Z,35.50
2018-05-11T00:54:49.759Z,34.90
2018-05-11T00:57:17.420Z,35.30
2018-05-11T00:59:44.882Z,34.90
2018-05-11T01:02:12.377Z,34.90
2018-05-11T01:04:39.911Z,35.20
2018-05-11T01:07:08.188Z,34.80
2018-05-11T01:09:36.436Z,34.90
2018-05-11T01:12:04.041Z,34.90
2018-05-11T01:14:32.328Z,34.90
2018-05-11T01:16:59.847Z,35.60
2018-05-11T01:19:27.678Z,35.10
2018-05-11T01:21:55.197Z,34.80
2018-05-11T01:24:23.426Z,34.70
2018-05-11T01:26:51.048Z,34.80
2018-05-11T01:29:18.602Z,34.90
2018-05-11T01:31:46.195Z,34.60
2018-05-11T01:34:13.924Z,34.80
2018-05-11T01:36:41.428Z,34.80
2018-05-11T01:39:08.968Z,34.90
2018-05-11T01:41:36.453Z,34.60
2018-05-11T01:44:03.947Z,34.90
2018-05-11T01:46:32.984Z,35.00
2018-05-11T01:49:00.532Z,35.00
2018-05-11T01:51:28.066Z,34.60
2018-05-11T01:53:56.304Z,34.90
2018-05-11T01:56:23.824Z,34.90
2018-05-11T01:58:51.301Z,35.00
2018-05-11T02:01:18.803Z,34.70
2018-05-11T02:03:47.303Z,34.70
2018-05-11T02:06:14.828Z,34.80
2018-05-11T02:08:42.439Z,34.60
2018-05-11T02:11:09.947Z,34.90
2018-05-11T02:13:37.417Z,34.50
2018-05-11T02:16:05.691Z,34.70
2018-05-11T02:18:34.052Z,34.80
2018-05-11T02:21:02.253Z,34.70
2018-05-11T02:23:30.496Z,34.60
2018-05-11T02:25:58.049Z,34.60
2018-05-11T02:28:26.238Z,34.70
2018-05-11T02:30:53.758Z,34.70
2018-05-11T02:33:21.277Z,34.40
2018-05-11T02:35:49.559Z,35.00
2018-05-11T02:38:17.829Z,34.70
2018-05-11T02:40:46.121Z,34.80
2018-05-11T02:43:13.641Z,34.80
2018-05-11T02:45:41.119Z,34.80
2018-05-11T02:48:09.359Z,34.80
2018-05-11T02:50:36.952Z,34.70
2018-05-11T02:53:04.381Z,35.30
2018-05-11T02:55:31.861Z,34.90
2018-05-11T02:57:59.564Z,34.80
2018-05-11T03:00:27.051Z,34.70
2018-05-11T03:02:54.657Z,35.10
2018-05-11T03:05:22.949Z,35.00
2018-05-11T03:07:50.417Z,35.00
2018-05-11T03:10:17.908Z,35.00
2018-05-11T03:12:45.405Z,34.90
2018-05-11T03:15:13.681Z,34.90
2018-05-11T03:17:42.064Z,35.00
2018-05-11T03:20:09.543Z,35.10
2018-05-11T03:22:37.087Z,35.00
2018-05-11T03:25:04.591Z,34.80
2018-05-11T03:27:32.191Z,34.90
2018-05-11T03:30:00.472Z,34.80
2018-05-11T03:32:28.738Z,34.60
2018-05-11T03:34:56.255Z,34.80
2018-05-11T03:37:23.803Z,34.80
2018-05-11T03:39:51.310Z,34.90
2018-05-11T03:42:19.566Z,35.50
2018-05-11T03:44:47.069Z,34.80
2018-05-11T03:47:14.566Z,34.70
2018-05-11T03:49:42.077Z,35.00
2018-05-11T03:52:10.360Z,34.60
2018-05-11T03:54:37.885Z,34.60
2018-05-11T03:57:06.196Z,34.90
2018-05-11T03:59:33.711Z,34.90
2018-05-11T04:02:13.239Z,34.60
2018-05-11T04:04:52.827Z,34.80
2018-05-11T04:07:32.877Z,34.80
2018-05-11T04:10:01.109Z,34.60
2018-05-11T04:12:28.721Z,34.60
2018-05-11T04:14:57.055Z,34.60
2018-05-11T04:17:24.557Z,34.60
2018-05-11T04:19:52.802Z,34.80
2018-05-11T04:22:20.415Z,34.90
2018-05-11T04:24:47.901Z,35.10
2018-05-11T04:27:15.405Z,35.10
2018-05-11T04:29:43.687Z,35.70
2018-05-11T04:32:11.925Z,34.90
2018-05-11T04:34:39.413Z,35.00
2018-05-11T04:37:07.679Z,34.90
2018-05-11T04:39:35.187Z,35.00
2018-05-11T04:42:02.689Z,34.90
2018-05-11T04:44:30.165Z,35.00
2018-05-11T04:46:58.530Z,35.20
2018-05-11T04:49:26.033Z,35.20
2018-05-11T04:51:53.568Z,34.90
2018-05-11T04:54:21.067Z,35.10
2018-05-11T04:56:48.540Z,35.10
2018-05-11T04:59:16.077Z,35.10
2018-05-11T05:01:43.602Z,35.30
2018-05-11T05:04:11.120Z,35.20
2018-05-11T05:06:38.749Z,35.90
2018-05-11T05:09:06.214Z,35.70
2018-05-11T05:11:34.533Z,35.90
2018-05-11T05:14:02.821Z,35.90
2018-05-11T05:16:31.099Z,35.90
2018-05-11T05:18:58.666Z,35.90
2018-05-11T05:21:26.237Z,35.90
2018-05-11T05:23:54.315Z,35.90
2018-05-11T05:26:21.835Z,35.90
2018-05-11T05:28:49.337Z,35.90
2018-05-11T05:31:16.814Z,35.90
2018-05-11T05:33:44.325Z,35.90
2018-05-11T05:36:13.241Z,35.90
2018-05-11T05:38:40.767Z,35.90
2018-05-11T05:41:09.045Z,36.00
2018-05-11T05:43:37.338Z,35.90
2018-05-11T05:46:04.821Z,35.90
2018-05-11T05:48:32.334Z,35.90
2018-05-11T05:51:00.625Z,35.80
2018-05-11T05:53:28.114Z,35.80
2018-05-11T05:55:55.596Z,35.90
2018-05-11T05:58:23.127Z,35.90
2018-05-11T06:00:50.638Z,35.90
2018-05-11T06:03:18.910Z,35.40
2018-05-11T06:05:46.402Z,35.90
2018-05-11T06:08:13.898Z,35.90
2018-05-11T06:10:41.418Z,35.90
2018-05-11T06:13:08.904Z,35.90
2018-05-11T06:15:39.091Z,35.90
2018-05-11T06:18:06.564Z,36.60
2018-05-11T06:20:34.076Z,36.00
2018-05-11T06:23:01.598Z,35.90
2018-05-11T06:25:29.064Z,37.20
2018-05-11T06:27:56.570Z,37.10
2018-05-11T06:30:24.877Z,37.30
2018-05-11T06:32:52.394Z,37.30
2018-05-11T06:35:21.678Z,36.00
2018-05-11T06:37:49.143Z,36.10
2018-05-11T06:40:18.511Z,37.30
2018-05-11T06:42:45.994Z,38.00
2018-05-11T06:45:14.302Z,36.60
2018-05-11T06:47:42.648Z,35.90
2018-05-11T06:50:10.134Z,35.90
2018-05-11T06:52:38.409Z,35.90
2018-05-11T06:55:06.706Z,36.00
2018-05-11T06:57:34.201Z,35.90
2018-05-11T07:00:01.709Z,35.90
2018-05-11T07:02:29.253Z,35.90
2018-05-11T07:04:57.513Z,36.00
2018-05-11T07:07:25.138Z,35.90
2018-05-11T07:09:52.639Z,35.90
2018-05-11T07:12:20.151Z,35.70
2018-05-11T07:14:47.641Z,35.90
2018-05-11T07:17:15.169Z,35.90
2018-05-11T07:19:42.627Z,35.90
2018-05-11T07:22:10.174Z,35.90
2018-05-11T07:24:37.757Z,35.80
2018-05-11T07:27:05.245Z,35.90
2018-05-11T07:29:34.249Z,36.00
2018-05-11T07:32:02.550Z,36.10
2018-05-11T07:34:30.037Z,35.90
2018-05-11T07:36:57.555Z,36.00
2018-05-11T07:39:25.804Z,35.90
2018-05-11T07:41:53.328Z,35.90
2018-05-11T07:44:20.828Z,35.90
2018-05-11T07:46:48.329Z,35.90
2018-05-11T07:49:15.852Z,35.90
2018-05-11T07:51:44.102Z,36.70
2018-05-11T07:54:11.613Z,35.90
2018-05-11T07:56:39.119Z,35.60
2018-05-11T07:59:06.635Z,35.90
2018-05-11T08:01:34.178Z,35.90
2018-05-11T08:04:01.716Z,36.50
2018-05-11T08:06:30.008Z,37.60
2018-05-11T08:08:58.281Z,35.90
2018-05-11T08:11:26.658Z,35.90
2018-05-11T08:13:54.920Z,36.10
2018-05-11T08:16:22.432Z,35.90
2018-05-11T08:18:49.904Z,36.00
2018-05-11T08:21:17.588Z,36.00
2018-05-11T08:23:45.780Z,36.70
2018-05-11T08:26:14.031Z,36.00
2018-05-11T08:28:41.610Z,36.00
2018-05-11T08:31:09.877Z,36.90
2018-05-11T08:33:37.473Z,36.70
2018-05-11T08:36:04.978Z,37.50
2018-05-11T08:38:32.579Z,36.70
2018-05-11T08:41:00.828Z,37.70
2018-05-11T08:43:28.323Z,37.70
2018-05-11T08:45:56.648Z,36.90
2018-05-11T08:48:24.133Z,36.90
2018-05-11T08:50:51.649Z,37.20
2018-05-11T08:53:19.137Z,37.00
2018-05-11T08:55:46.663Z,37.30
2018-05-11T08:58:14.198Z,37.30
2018-05-11T09:00:41.746Z,36.50
2018-05-11T09:03:10.021Z,36.10
2018-05-11T09:05:38.306Z,36.10
2018-05-11T09:08:05.892Z,36.00
2018-05-11T09:10:33.431Z,36.00
2018-05-11T09:13:00.986Z,36.00
2018-05-11T09:15:28.503Z,36.00
2018-05-11T09:17:56.004Z,36.00
2018-05-11T09:20:24.269Z,35.60
2018-05-11T09:22:52.569Z,36.20
2018-05-11T09:25:20.080Z,36.10
2018-05-11T09:27:47.651Z,36.10
2018-05-11T09:30:15.150Z,35.30
2018-05-11T09:32:42.670Z,35.30
2018-05-11T09:35:10.945Z,36.10
2018-05-11T09:37:39.214Z,36.50
2018-05-11T09:40:06.732Z,36.10
2018-05-11T09:42:34.254Z,36.40
2018-05-11T09:45:02.541Z,36.10
2018-05-11T09:47:30.042Z,36.10
2018-05-11T09:49:57.558Z,37.20
2018-05-11T09:52:25.048Z,36.00
2018-05-11T09:54:52.552Z,36.00
2018-05-11T09:57:20.844Z,36.10
2018-05-11T09:59:49.109Z,36.00
2018-05-11T10:02:17.386Z,36.10
2018-05-11T10:04:45.690Z,36.00
2018-05-11T10:07:13.166Z,36.00
2018-05-11T10:09:40.698Z,36.00
2018-05-11T10:12:08.254Z,36.40
2018-05-11T10:14:35.742Z,36.00
2018-05-11T10:17:03.249Z,37.20
2018-05-11T10:19:31.527Z,38.20
2018-05-11T10:21:59.779Z,36.80
2018-05-11T10:24:27.277Z,36.90
2018-05-11T10:26:54.839Z,37.40
2018-05-11T10:29:22.371Z,36.90
2018-05-11T10:31:49.868Z,37.70
2018-05-11T10:34:17.385Z,38.30
2018-05-11T10:36:44.967Z,37.50
2018-05-11T10:39:13.224Z,37.60
2018-05-11T10:41:40.778Z,37.60
2018-05-11T10:44:08.245Z,36.70
2018-05-11T10:46:36.517Z,36.20
2018-05-11T10:49:04.762Z,35.90
2018-05-11T10:51:32.258Z,36.10
2018-05-11T10:54:00.518Z,37.40
2018-05-11T10:56:28.127Z,37.30
2018-05-11T10:58:55.594Z,37.60
2018-05-11T11:01:23.090Z,36.70
2018-05-11T11:03:50.586Z,38.10
2018-05-11T11:06:18.134Z,36.10
2018-05-11T11:08:46.414Z,36.90
2018-05-11T11:11:13.950Z,36.90
2018-05-11T11:13:42.387Z,36.90
2018-05-11T11:16:09.909Z,36.10
2018-05-11T11:18:38.189Z,36.70
2018-05-11T11:21:05.694Z,36.60
2018-05-11T11:23:33.210Z,37.50
2018-05-11T11:26:00.791Z,39.50
2018-05-11T11:28:28.214Z,37.00
2018-05-11T11:30:56.454Z,39.20
2018-05-11T11:33:23.960Z,39.20
2018-05-11T11:35:51.434Z,39.70
2018-05-11T11:38:19.093Z,39.30
2018-05-11T11:40:46.585Z,39.20
2018-05-11T11:43:14.081Z,37.80
2018-05-11T11:45:42.362Z,39.60
2018-05-11T11:48:10.619Z,38.80
2018-05-11T11:50:38.110Z,38.80
2018-05-11T11:53:05.608Z,39.20
2018-05-11T11:55:33.119Z,38.50
2018-05-11T11:58:00.696Z,38.80
2018-05-11T12:00:28.210Z,38.60
2018-05-11T12:02:57.213Z,38.90
2018-05-11T12:05:25.493Z,38.30
2018-05-11T12:07:53.762Z,39.20
2018-05-11T12:10:22.042Z,37.80
2018-05-11T12:12:50.358Z,38.20
2018-05-11T12:15:17.854Z,38.40
2018-05-11T12:17:45.416Z,38.10
2018-05-11T12:20:12.996Z,38.70
2018-05-11T12:22:41.256Z,38.10
2018-05-11T12:25:08.749Z,38.10
2018-05-11T12:27:36.255Z,38.20
2018-05-11T12:30:03.750Z,38.20
2018-05-11T12:32:32.035Z,37.60
2018-05-11T12:35:00.390Z,38.50
2018-05-11T12:37:27.978Z,38.50
2018-05-11T12:39:55.500Z,38.00
2018-05-11T12:42:22.971Z,37.70
2018-05-11T12:44:50.475Z,36.00
2018-05-11T12:47:17.944Z,36.00
2018-05-11T12:49:45.468Z,36.70
2018-05-11T12:52:13.063Z,36.00
2018-05-11T12:54:40.562Z,37.10
2018-05-11T12:57:08.056Z,37.10
2018-05-11T12:59:35.562Z,37.70
2018-05-11T13:02:03.064Z,37.30
2018-05-11T13:04:30.536Z,37.40
2018-05-11T13:06:58.046Z,37.70
2018-05-11T13:09:25.580Z,37.80
2018-05-11T13:11:53.210Z,37.90
2018-05-11T13:14:20.704Z,37.10
2018-05-11T13:16:48.274Z,37.10
2018-05-11T13:19:15.796Z,37.50
2018-05-11T13:21:43.803Z,36.10
2018-05-11T13:24:11.308Z,36.10
2018-05-11T13:26:38.846Z,36.90
2018-05-11T13:29:07.129Z,38.40
2018-05-11T13:31:35.398Z,38.90
2018-05-11T13:34:03.672Z,37.70
2018-05-11T13:36:32.000Z,36.20
2018-05-11T13:38:59.417Z,37.20
2018-05-11T13:41:27.701Z,36.20
2018-05-11T13:43:56.069Z,37.50
2018-05-11T13:46:24.354Z,37.80
2018-05-11T13:48:52.607Z,37.80
2018-05-11T13:51:20.874Z,39.30
2018-05-11T13:53:48.432Z,39.60
2018-05-11T13:56:17.757Z,38.40
2018-05-11T13:58:45.183Z,38.40
2018-05-11T14:01:16.383Z,37.30
2018-05-11T14:03:45.321Z,38.20
2018-05-11T14:06:12.859Z,36.40
2018-05-11T14:08:40.357Z,37.20
2018-05-11T14:11:08.641Z,35.90
2018-05-11T14:13:36.935Z,35.90
2018-05-11T14:16:04.436Z,35.90
2018-05-11T14:18:32.023Z,35.90
2018-05-11T14:20:59.517Z,35.90
2018-05-11T14:23:26.996Z,35.90
2018-05-11T14:25:54.509Z,35.90
2018-05-11T14:28:22.761Z,35.90
2018-05-11T14:30:50.253Z,35.90
2018-05-11T14:33:17.831Z,35.90
2018-05-11T14:35:45.303Z,36.50
2018-05-11T14:38:12.815Z,35.90
2018-05-11T14:40:41.068Z,35.90
2018-05-11T14:43:08.566Z,35.90
2018-05-11T14:45:36.081Z,35.90
2018-05-11T14:48:03.697Z,35.90
2018-05-11T14:50:31.263Z,35.90
2018-05-11T14:52:58.725Z,35.90
2018-05-11T14:55:26.254Z,35.90
2018-05-11T14:57:53.729Z,35.90
2018-05-11T15:00:22.747Z,35.70
2018-05-11T15:02:50.220Z,35.70
2018-05-11T15:05:17.721Z,35.70
2018-05-11T15:07:45.983Z,36.70
2018-05-11T15:10:14.284Z,37.40
2018-05-11T15:12:41.781Z,37.40
2018-05-11T15:15:09.342Z,35.90
2018-05-11T15:17:36.930Z,37.40
2018-05-11T15:20:05.214Z,36.50
2018-05-11T15:22:32.703Z,36.70
2018-05-11T15:25:00.215Z,37.20
2018-05-11T15:27:27.810Z,39.50
2018-05-11T15:29:55.345Z,42.50
2018-05-11T15:32:22.860Z,42.00
2018-05-11T15:34:50.351Z,39.70
2018-05-11T15:37:17.935Z,38.20
2018-05-11T15:39:46.210Z,37.90
2018-05-11T15:42:14.478Z,36.70
2018-05-11T15:44:42.731Z,35.90
2018-05-11T15:47:10.212Z,36.00
2018-05-11T15:49:38.480Z,35.60
2018-05-11T15:52:07.481Z,35.40
2018-05-11T15:54:35.725Z,37.10
2018-05-11T15:57:03.229Z,37.10
2018-05-11T15:59:30.711Z,35.10
2018-05-11T16:01:58.213Z,34.30
2018-05-11T16:04:26.623Z,34.40
2018-05-11T16:06:55.019Z,33.20
2018-05-11T16:09:22.573Z,33.20
2018-05-11T16:11:50.072Z,33.20
2018-05-11T16:14:17.587Z,33.20
2018-05-11T16:16:45.122Z,35.70
2018-05-11T16:19:13.400Z,34.90
2018-05-11T16:21:41.667Z,35.50
2018-05-11T16:24:09.161Z,35.50
2018-05-11T16:26:36.653Z,36.50
2018-05-11T16:29:04.159Z,36.50
2018-05-11T16:31:32.441Z,37.30
2018-05-11T16:34:00.020Z,37.30
2018-05-11T16:36:27.502Z,36.90
2018-05-11T16:38:55.092Z,36.80
2018-05-11T16:41:22.663Z,37.20
2018-05-11T16:43:50.924Z,37.40
2018-05-11T16:46:18.415Z,37.40
2018-05-11T16:48:45.945Z,37.40
2018-05-11T16:51:14.273Z,37.00
2018-05-11T16:53:42.476Z,37.30
2018-05-11T16:56:09.966Z,37.30
2018-05-11T16:58:38.233Z,37.30
2018-05-11T17:01:05.721Z,38.00
2018-05-11T17:03:33.270Z,37.30
2018-05-11T17:06:01.572Z,37.40
2018-05-11T17:08:29.064Z,37.50
2018-05-11T17:10:56.562Z,37.40
2018-05-11T17:13:26.335Z,36.90
2018-05-11T17:15:53.835Z,36.90
2018-05-11T17:18:22.074Z,36.80
2018-05-11T17:20:49.573Z,36.90
2018-05-11T17:23:17.112Z,37.10
2018-05-11T17:25:45.428Z,36.60
2018-05-11T17:28:12.946Z,36.70
2018-05-11T17:30:41.256Z,36.00
2018-05-11T17:33:08.760Z,35.90
2018-05-11T17:35:36.254Z,36.90
2018-05-11T17:38:04.522Z,36.00
2018-05-11T17:40:32.806Z,36.80
2018-05-11T17:43:00.288Z,36.80
2018-05-11T17:45:27.780Z,37.40
2018-05-11T17:47:55.254Z,36.60
2018-05-11T17:50:22.755Z,36.90
2018-05-11T17:52:50.330Z,37.20
2018-05-11T17:55:17.873Z,36.40
2018-05-11T17:57:45.371Z,36.80
2018-05-11T18:00:12.882Z,36.40
2018-05-11T18:02:40.346Z,37.60
2018-05-11T18:05:07.872Z,37.50
2018-05-11T18:07:35.422Z,38.30
2018-05-11T18:10:03.019Z,38.40
2018-05-11T18:12:30.498Z,38.80
2018-05-11T18:14:58.024Z,39.10
2018-05-11T18:17:26.260Z,38.90
2018-05-11T18:19:53.774Z,38.90
2018-05-11T18:22:21.305Z,39.50
2018-05-11T18:24:49.556Z,39.10
2018-05-11T18:27:17.049Z,39.10
2018-05-11T18:29:45.338Z,38.60
2018-05-11T18:32:12.843Z,38.60
2018-05-11T18:34:40.322Z,39.20
2018-05-11T18:37:07.857Z,39.20
2018-05-11T18:39:35.446Z,39.10
2018-05-11T18:42:02.890Z,38.60
2018-05-11T18:44:31.206Z,38.80
2018-05-11T18:46:58.890Z,38.60
2018-05-11T18:49:26.322Z,38.50
2018-05-11T18:51:53.806Z,38.70
2018-05-11T18:54:21.523Z,38.90
2018-05-11T18:56:48.871Z,37.90
2018-05-11T18:59:16.417Z,38.30
2018-05-11T19:01:43.981Z,38.30
2018-05-11T19:04:12.192Z,38.40
2018-05-11T19:06:39.744Z,38.40
2018-05-11T19:09:07.318Z,38.30
2018-05-11T19:11:35.527Z,38.20
2018-05-11T19:14:03.002Z,38.30
2018-05-11T19:16:30.618Z,38.10
2018-05-11T19:18:58.162Z,38.00
2018-05-11T19:21:25.737Z,38.90
2018-05-11T19:23:53.233Z,40.60
2018-05-11T19:26:20.744Z,39.90
2018-05-11T19:28:48.240Z,39.10
2018-05-11T19:31:15.724Z,40.00
2018-05-11T19:33:44.029Z,40.10
2018-05-11T19:36:11.527Z,40.10
2018-05-11T19:38:39.020Z,39.80
2018-05-11T19:41:07.282Z,40.80
2018-05-11T19:43:34.871Z,40.50
2018-05-11T19:46:03.143Z,38.80
2018-05-11T19:48:31.449Z,38.90
2018-05-11T19:50:58.995Z,39.70
2018-05-11T19:53:26.465Z,38.50
2018-05-11T19:55:54.059Z,39.00
2018-05-11T19:58:21.563Z,39.40
2018-05-11T20:00:49.829Z,38.30
2018-05-11T20:03:18.079Z,38.50
2018-05-11T20:05:45.577Z,38.40
2018-05-11T20:08:13.061Z,38.30
2018-05-11T20:10:40.577Z,38.00
2018-05-11T20:13:08.859Z,37.70
2018-05-11T20:15:37.121Z,37.80
2018-05-11T20:18:04.692Z,37.80
2018-05-11T20:20:32.962Z,37.50
2018-05-11T20:23:00.458Z,37.50
2018-05-11T20:25:27.974Z,37.80
2018-05-11T20:27:55.523Z,37.70
2018-05-11T20:30:23.010Z,37.80
2018-05-11T20:32:51.379Z,38.60
2018-05-11T20:35:19.666Z,37.70
2018-05-11T20:37:47.173Z,38.30
2018-05-11T20:40:14.675Z,39.00
2018-05-11T20:42:42.200Z,39.00
2018-05-11T20:45:10.462Z,38.90
2018-05-11T20:47:37.966Z,39.00
2018-05-11T20:50:06.234Z,38.10
2018-05-11T20:52:33.741Z,38.10
2018-05-11T20:55:01.258Z,37.90
2018-05-11T20:57:29.551Z,37.80
2018-05-11T20:59:57.111Z,37.80
2018-05-11T21:02:24.595Z,37.90
2018-05-11T21:04:52.151Z,38.20
2018-05-11T21:07:20.344Z,38.40
2018-05-11T21:09:47.857Z,38.50
2018-05-11T21:12:15.441Z,39.30
2018-05-11T21:14:43.126Z,38.50
2018-05-11T21:17:10.503Z,37.80
2018-05-11T21:19:38.812Z,37.50
2018-05-11T21:22:06.324Z,37.60
2018-05-11T21:24:33.798Z,37.80
2018-05-11T21:27:01.333Z,37.90
2018-05-11T21:29:28.891Z,37.90
2018-05-11T21:31:56.388Z,37.50
2018-05-11T21:34:24.639Z,37.50
2018-05-11T21:36:52.164Z,37.50
2018-05-11T21:39:19.679Z,38.30
2018-05-11T21:41:47.176Z,38.30
2018-05-11T21:44:14.732Z,38.30
2018-05-11T21:46:42.373Z,37.80
2018-05-11T21:49:10.628Z,37.50
2018-05-11T21:51:38.896Z,38.60
2018-05-11T21:54:06.416Z,38.30
2018-05-11T21:56:33.885Z,38.30
2018-05-11T21:59:01.380Z,37.80
2018-05-11T22:01:29.644Z,38.30
2018-05-11T22:03:57.146Z,38.40
2018-05-11T22:06:24.610Z,38.00
2018-05-11T22:08:52.131Z,38.00
2018-05-11T22:11:19.741Z,37.80
2018-05-11T22:13:47.248Z,37.80
2018-05-11T22:16:14.738Z,37.70
2018-05-11T22:18:42.251Z,37.70
2018-05-11T22:21:09.753Z,37.60
2018-05-11T22:23:37.287Z,38.00
2018-05-11T22:26:05.557Z,38.30
2018-05-11T22:28:33.847Z,38.50
2018-05-11T22:31:02.090Z,37.90
2018-05-11T22:33:29.705Z,38.00
2018-05-11T22:35:57.596Z,37.50
2018-05-11T22:38:25.118Z,37.40
2018-05-11T22:40:52.599Z,37.60
2018-05-11T22:43:20.149Z,37.80
2018-05-11T22:45:47.673Z,37.90
2018-05-11T22:48:15.970Z,38.10
2018-05-11T22:50:43.483Z,38.10
2018-05-11T22:53:11.911Z,38.10
2018-05-11T22:55:39.471Z,38.20
2018-05-11T22:58:07.023Z,38.30
2018-05-11T23:00:39.038Z,37.80
2018-05-11T23:03:06.543Z,37.90
2018-05-11T23:05:34.056Z,37.90
2018-05-11T23:08:01.560Z,38.30
2018-05-11T23:10:29.806Z,38.70
2018-05-11T23:12:58.826Z,39.80
2018-05-11T23:15:27.058Z,38.80
2018-05-11T23:17:54.549Z,38.80
2018-05-11T23:20:22.795Z,39.20
2018-05-11T23:22:50.321Z,39.20
2018-05-11T23:25:17.877Z,39.20
2018-05-11T23:27:45.497Z,39.50
2018-05-11T23:30:12.953Z,39.00
2018-05-11T23:32:40.537Z,38.70
2018-05-11T23:35:08.867Z,38.80
2018-05-11T23:37:36.343Z,38.70
2018-05-11T23:40:03.926Z,38.60
2018-05-11T23:42:33.028Z,38.70
2018-05-11T23:45:00.546Z,38.70
2018-05-11T23:47:28.036Z,39.00
2018-05-11T23:49:56.329Z,39.30
2018-05-11T23:52:23.850Z,39.30
2018-05-11T23:54:51.417Z,38.50
2018-05-11T23:57:19.675Z,39.00
2018-05-11T23:59:47.190Z,38.70
